Terminal Aerodrome Forecast
Issued by NWS Missoula, MT

Home | Current Version | Previous Version | Text Only | Print | Product List | Glossary On
Versions: 1 2 3 4 5 6 7 8 9 10 11 12 13
000
FTUS45 KMSO 261720
TAFGPI
TAF
KGPI 261720Z 2618/2718 00000KT 5SM -SN BR VCSH BKN035 OVC045
     FM262200 00000KT P6SM VCSH BKN035 OVC050
     FM271400 00000KT 6SM -SN BR SCT010 OVC035=

USA.gov is the U.S. government's official web portal to all federal, state and local government web resources and services.